OIAG  Aghajari Airport

Add Bookmark

Iran

Status
Operational
Latitude Longitude
30° 44' 39" N 49° 40' 37" E
30.744400 49.677200
Local (DST + 5) UTC (GMT + 4)
Jan 31, 2015 10:39 Jan 31, 2015 19:09
Sunrise-Sunset Local UTC
Begin Civil Twilight 06:36 03:06
Sunrise 07:02 03:32
Sunset 05:47 14:17
End Civil Twilight 06:12 14:42

Current Weather

METAR Observed VFR
OIAG 311700Z 34006KT CAVOK 19/06 Q1018 Sat, Jan 31, 2015 @ 17:00 UTC
(2 Hours, 9 Minutes ago)
Visual Flight Rules
Wind Visibility Clouds Conditions
340° at 6 knots (11 kph) 10 km or more
  • Clear skies
  • No significant weather
Temperatures Readings Precipitation
Current Temp 19°C (66°F)
Dewpoint 6°C (43°F)
Humidity 43%
Altimeter 30.06"Hg
Sea Level Pressure 1018mb
Field Elevation 95.14'
None Recorded

Additional weather within a 92.6km radius of OIAG

Map ICAO Location
OIAM 54.4km W (248°)

24 Hour Weather History

Loading
-

24 Hour Weather Graphs

Loading
-

CheckWX.com is intended as a tool to help pilots better visualize weather data. It is not intended as a substitute for an official weather briefing obtained from a Flight Service Station. CheckWX.com does not meet the FAA requirements for an official pre-flight weather briefing. Therefore, it's important that pilots still call and obtain an official FSS pre-flight weather briefing.